Time;durP1;ratioP1;P1;durP2;ratioP2;P2;SDS_P1;SDS_P2;PMS_P1;PMS_P2;Temp;Humidity;BMP_temperature;BMP_pressure;BME280_temperature;BME280_humidity;BME280_pressure;Samples;Min_cycle;Max_cycle;Signal;HPM_P1;HPM_P2
2023/12/07 00:02:18;;;;;;;20.93;14.40;;;;;;;;;;4992513;28;20230;-78
2023/12/07 00:04:44;;;;;;;20.80;13.50;;;;;;;;;;4992261;28;20566;-79
2023/12/07 00:07:10;;;;;;;19.43;14.20;;;;;;;;;;4990565;28;20211;-79
2023/12/07 00:09:36;;;;;;;16.70;13.43;;;;;;;;;;4993698;28;20231;-78
2023/12/07 00:12:02;;;;;;;16.83;12.60;;;;;;;;;;4996904;28;20187;-78
2023/12/07 00:14:28;;;;;;;19.67;13.23;;;;;;;;;;4992165;28;20665;-78
2023/12/07 00:16:54;;;;;;;17.87;12.77;;;;;;;;;;4991309;28;20271;-78
2023/12/07 00:19:21;;;;;;;17.00;12.63;;;;;;;;;;4987317;28;20318;-78
2023/12/07 00:21:47;;;;;;;19.63;14.03;;;;;;;;;;4990645;28;20188;-78
2023/12/07 00:24:13;;;;;;;16.83;13.47;;;;;;;;;;4984275;28;20196;-78
2023/12/07 00:26:39;;;;;;;19.00;14.03;;;;;;;;;;4991255;28;20558;-78
2023/12/07 00:29:05;;;;;;;15.60;12.23;;;;;;;;;;4975691;28;20215;-78
2023/12/07 00:31:31;;;;;;;16.47;12.93;;;;;;;;;;4975914;28;20541;-78
2023/12/07 00:33:57;;;;;;;16.30;12.70;;;;;;;;;;4988518;28;20227;-79
2023/12/07 00:36:24;;;;;;;19.23;12.87;;;;;;;;;;4970934;28;20187;-78
2023/12/07 00:38:50;;;;;;;16.63;12.80;;;;;;;;;;4975549;28;20207;-78
2023/12/07 00:41:16;;;;;;;19.23;13.33;;;;;;;;;;4986365;28;20184;-78
2023/12/07 00:43:42;;;;;;;17.97;13.03;;;;;;;;;;4992807;28;20194;-78
2023/12/07 00:46:09;;;;;;;18.70;12.83;;;;;;;;;;4990508;28;20194;-78
2023/12/07 00:48:35;;;;;;;17.67;12.83;;;;;;;;;;4990522;28;20242;-79
2023/12/07 00:51:01;;;;;;;16.93;12.70;;;;;;;;;;4975177;28;20196;-78
2023/12/07 00:53:27;;;;;;;16.20;12.17;;;;;;;;;;4991272;28;20180;-78
2023/12/07 00:55:53;;;;;;;15.90;12.43;;;;;;;;;;4990732;28;20202;-78
2023/12/07 00:58:19;;;;;;;16.30;12.33;;;;;;;;;;4973211;28;20255;-78
2023/12/07 01:00:45;;;;;;;17.13;13.07;;;;;;;;;;4990921;28;20187;-78
2023/12/07 01:03:12;;;;;;;17.90;12.77;;;;;;;;;;4992726;28;20236;-78
2023/12/07 01:05:38;;;;;;;18.90;13.63;;;;;;;;;;4975457;28;20649;-78
2023/12/07 01:08:04;;;;;;;18.97;13.07;;;;;;;;;;4988218;28;20302;-78
2023/12/07 01:10:31;;;;;;;19.23;12.50;;;;;;;;;;4985180;28;20184;-79
2023/12/07 01:12:57;;;;;;;20.30;13.23;;;;;;;;;;4977460;28;20211;-79
2023/12/07 01:15:23;;;;;;;16.43;11.77;;;;;;;;;;4991458;28;20239;-78
2023/12/07 01:17:49;;;;;;;19.17;11.77;;;;;;;;;;4989706;28;20595;-78
2023/12/07 01:20:16;;;;;;;16.83;11.90;;;;;;;;;;4973473;28;20625;-78
2023/12/07 01:22:43;;;;;;;17.80;12.37;;;;;;;;;;4974495;28;20183;-78
2023/12/07 01:25:09;;;;;;;16.70;12.20;;;;;;;;;;4974990;28;20191;-78
2023/12/07 01:27:35;;;;;;;17.33;12.20;;;;;;;;;;4990446;28;20273;-78
2023/12/07 01:30:03;;;;;;;16.77;12.00;;;;;;;;;;4990749;28;20172;-78
2023/12/07 01:32:29;;;;;;;21.27;14.33;;;;;;;;;;4990773;28;20187;-78
2023/12/07 01:34:55;;;;;;;20.23;14.20;;;;;;;;;;4974410;28;20652;-78
2023/12/07 01:37:22;;;;;;;18.97;13.23;;;;;;;;;;4969887;28;20180;-78
2023/12/07 01:39:48;;;;;;;16.53;11.33;;;;;;;;;;4985052;28;20620;-78
2023/12/07 01:42:14;;;;;;;14.87;10.87;;;;;;;;;;4990170;28;20612;-78
2023/12/07 01:44:40;;;;;;;17.43;13.47;;;;;;;;;;4988861;28;20623;-79
2023/12/07 01:47:08;;;;;;;16.93;12.83;;;;;;;;;;4987508;28;20230;-78
2023/12/07 01:49:34;;;;;;;17.30;12.73;;;;;;;;;;4988412;28;20215;-79
2023/12/07 01:52:02;;;;;;;17.03;12.43;;;;;;;;;;4992003;28;20638;-78
2023/12/07 01:54:29;;;;;;;18.03;12.80;;;;;;;;;;4990399;28;20255;-78
2023/12/07 01:56:56;;;;;;;14.20;10.50;;;;;;;;;;4990247;28;20188;-78
2023/12/07 01:59:22;;;;;;;13.50;10.33;;;;;;;;;;4988316;28;20302;-78
2023/12/07 02:01:48;;;;;;;13.43;10.20;;;;;;;;;;4987769;28;20188;-78
2023/12/07 02:04:14;;;;;;;13.37;10.40;;;;;;;;;;4991713;28;20558;-78
2023/12/07 02:06:40;;;;;;;15.20;11.70;;;;;;;;;;4989927;28;20184;-78
2023/12/07 02:09:08;;;;;;;16.30;11.70;;;;;;;;;;4990552;28;20222;-78
2023/12/07 02:11:34;;;;;;;13.23;10.13;;;;;;;;;;4988804;28;20568;-78
2023/12/07 02:14:00;;;;;;;14.83;11.03;;;;;;;;;;4990072;28;20184;-78
2023/12/07 02:16:31;;;;;;;16.03;11.17;;;;;;;;;;4988662;28;20648;-78
2023/12/07 02:19:03;;;;;;;15.43;11.23;;;;;;;;;;4991154;28;20220;-78
2023/12/07 02:21:31;;;;;;;15.17;10.90;;;;;;;;;;4989747;28;20771;-78
2023/12/07 02:23:58;;;;;;;15.07;10.33;;;;;;;;;;4990241;28;20181;-79
2023/12/07 02:26:30;;;;;;;14.60;10.27;;;;;;;;;;4990218;28;20632;-78
2023/12/07 02:28:57;;;;;;;15.17;11.23;;;;;;;;;;4988533;28;20682;-78
2023/12/07 02:31:23;;;;;;;17.53;12.40;;;;;;;;;;4985037;28;20249;-78
2023/12/07 02:33:50;;;;;;;20.67;13.40;;;;;;;;;;4986444;28;20640;-78
2023/12/07 02:36:20;;;;;;;18.70;12.33;;;;;;;;;;4969347;28;20782;-79
2023/12/07 02:38:47;;;;;;;17.17;12.07;;;;;;;;;;4987827;28;20207;-78
2023/12/07 02:41:13;;;;;;;16.23;11.70;;;;;;;;;;4987345;28;20192;-78
2023/12/07 02:43:39;;;;;;;17.37;12.53;;;;;;;;;;4971941;28;20191;-78
2023/12/07 02:46:05;;;;;;;17.63;12.27;;;;;;;;;;4989604;28;20287;-78
2023/12/07 02:48:32;;;;;;;16.63;11.40;;;;;;;;;;4985625;28;20216;-78
2023/12/07 02:50:58;;;;;;;18.10;12.50;;;;;;;;;;4989012;28;20688;-79
2023/12/07 02:53:24;;;;;;;18.93;12.43;;;;;;;;;;4989491;28;20180;-78
2023/12/07 02:55:50;;;;;;;17.33;11.97;;;;;;;;;;4987754;28;20649;-78
2023/12/07 02:58:16;;;;;;;18.40;12.07;;;;;;;;;;4987834;28;20641;-78
2023/12/07 03:00:42;;;;;;;16.47;11.87;;;;;;;;;;4988421;28;20270;-78
2023/12/07 03:03:08;;;;;;;16.43;11.90;;;;;;;;;;4989936;28;20262;-78
2023/12/07 03:05:34;;;;;;;17.47;12.30;;;;;;;;;;4972586;28;20677;-78
2023/12/07 03:08:01;;;;;;;19.50;12.30;;;;;;;;;;4971187;28;20286;-78
2023/12/07 03:10:27;;;;;;;16.13;12.10;;;;;;;;;;4972434;28;20274;-78
2023/12/07 03:12:53;;;;;;;15.00;11.20;;;;;;;;;;4989450;28;20200;-78
2023/12/07 03:15:19;;;;;;;19.67;13.17;;;;;;;;;;4979984;28;20184;-78
2023/12/07 03:17:45;;;;;;;17.63;12.57;;;;;;;;;;4971721;28;20219;-78
2023/12/07 03:20:12;;;;;;;17.53;12.60;;;;;;;;;;4985275;28;20536;-78
2023/12/07 03:22:38;;;;;;;17.80;12.20;;;;;;;;;;4971072;28;20726;-78
2023/12/07 03:25:04;;;;;;;16.93;12.33;;;;;;;;;;4989779;28;20183;-78
2023/12/07 03:27:30;;;;;;;17.30;11.67;;;;;;;;;;4989859;28;20707;-78
2023/12/07 03:29:56;;;;;;;19.43;12.93;;;;;;;;;;4988853;28;20821;-78
2023/12/07 03:32:23;;;;;;;19.43;12.67;;;;;;;;;;4972543;28;20262;-78
2023/12/07 03:34:49;;;;;;;17.33;12.67;;;;;;;;;;4988189;28;20287;-78
2023/12/07 03:37:15;;;;;;;17.50;12.17;;;;;;;;;;4986878;28;20191;-78
2023/12/07 03:39:41;;;;;;;17.53;12.83;;;;;;;;;;4988439;28;20762;-78
2023/12/07 03:42:07;;;;;;;13.87;10.80;;;;;;;;;;4988449;28;20188;-78
2023/12/07 03:44:33;;;;;;;14.17;11.20;;;;;;;;;;4988967;28;20238;-78
2023/12/07 03:47:00;;;;;;;16.07;11.17;;;;;;;;;;4988758;28;20175;-78
2023/12/07 03:49:26;;;;;;;16.33;11.63;;;;;;;;;;4989207;28;20238;-78
2023/12/07 03:51:52;;;;;;;18.27;12.23;;;;;;;;;;4988080;28;20191;-78
2023/12/07 03:54:19;;;;;;;17.27;12.30;;;;;;;;;;4973178;28;20203;-78
2023/12/07 03:56:45;;;;;;;16.53;11.97;;;;;;;;;;4973025;28;20608;-78
2023/12/07 03:59:11;;;;;;;17.63;13.33;;;;;;;;;;4988891;28;20234;-78
2023/12/07 04:01:37;;;;;;;19.13;13.83;;;;;;;;;;4965332;28;20242;-78
2023/12/07 04:04:04;;;;;;;16.97;12.90;;;;;;;;;;4988857;28;20212;-79
2023/12/07 04:06:30;;;;;;;16.37;12.33;;;;;;;;;;4992879;28;20192;-78
2023/12/07 04:08:57;;;;;;;19.57;13.30;;;;;;;;;;4988982;28;20215;-77
2023/12/07 04:11:23;;;;;;;19.07;13.60;;;;;;;;;;4987645;28;20202;-77
2023/12/07 04:13:49;;;;;;;17.87;12.73;;;;;;;;;;4972733;28;20254;-78
2023/12/07 04:16:15;;;;;;;17.80;13.97;;;;;;;;;;4987887;28;20207;-77
2023/12/07 04:18:41;;;;;;;20.87;13.23;;;;;;;;;;4972014;28;20216;-78
2023/12/07 04:21:07;;;;;;;18.67;12.53;;;;;;;;;;4988840;28;20184;-78
2023/12/07 04:23:33;;;;;;;17.07;11.97;;;;;;;;;;4988713;28;20188;-78
2023/12/07 04:26:00;;;;;;;17.07;11.97;;;;;;;;;;4973067;28;20655;-78
2023/12/07 04:28:26;;;;;;;19.50;13.17;;;;;;;;;;4987311;28;20224;-78
2023/12/07 04:30:52;;;;;;;18.57;13.73;;;;;;;;;;4968268;28;20191;-78
2023/12/07 04:33:18;;;;;;;20.27;14.03;;;;;;;;;;4972039;28;20188;-78
2023/12/07 04:35:44;;;;;;;17.60;13.07;;;;;;;;;;4988849;28;20711;-78
2023/12/07 04:38:10;;;;;;;21.27;14.17;;;;;;;;;;4972105;28;20309;-78
2023/12/07 04:40:37;;;;;;;20.80;13.90;;;;;;;;;;4989265;28;20184;-78
2023/12/07 04:43:03;;;;;;;19.97;13.47;;;;;;;;;;4988139;28;20278;-78
2023/12/07 04:45:30;;;;;;;21.17;13.50;;;;;;;;;;4992480;28;20323;-78
2023/12/07 04:47:57;;;;;;;20.20;14.27;;;;;;;;;;4991581;28;20703;-78
2023/12/07 04:50:23;;;;;;;21.27;14.70;;;;;;;;;;5004008;28;20179;-78
2023/12/07 04:52:49;;;;;;;21.53;14.67;;;;;;;;;;4992596;28;20195;-78
2023/12/07 04:55:16;;;;;;;18.30;12.70;;;;;;;;;;4990451;28;20326;-78
2023/12/07 04:57:42;;;;;;;19.90;13.70;;;;;;;;;;4974788;28;20422;-78
2023/12/07 05:00:13;;;;;;;18.63;13.27;;;;;;;;;;4991916;28;20179;-78
2023/12/07 05:02:39;;;;;;;21.57;14.60;;;;;;;;;;4975428;28;20196;-78
2023/12/07 05:05:05;;;;;;;22.83;15.57;;;;;;;;;;4974901;28;20277;-78
2023/12/07 05:07:32;;;;;;;23.03;15.13;;;;;;;;;;4975463;28;20294;-78
2023/12/07 05:09:58;;;;;;;22.00;15.67;;;;;;;;;;4991964;28;20612;-77
2023/12/07 05:12:24;;;;;;;19.50;14.00;;;;;;;;;;4990565;28;20203;-78
2023/12/07 05:14:50;;;;;;;20.17;13.37;;;;;;;;;;4992798;28;20638;-78
2023/12/07 05:17:17;;;;;;;24.33;16.00;;;;;;;;;;4991705;28;20195;-78
2023/12/07 05:19:44;;;;;;;20.80;13.77;;;;;;;;;;4990649;28;20975;-78
2023/12/07 05:22:11;;;;;;;21.60;14.70;;;;;;;;;;4991882;28;20536;-78
2023/12/07 05:24:37;;;;;;;19.57;13.87;;;;;;;;;;4991524;28;20207;-78
2023/12/07 05:27:03;;;;;;;23.07;14.63;;;;;;;;;;4993011;28;20656;-78
2023/12/07 05:29:29;;;;;;;19.87;14.50;;;;;;;;;;4992507;28;20563;-78
2023/12/07 05:31:56;;;;;;;25.03;16.63;;;;;;;;;;4991787;28;20597;-78
2023/12/07 05:34:22;;;;;;;24.97;16.03;;;;;;;;;;4990018;28;20250;-78
2023/12/07 05:36:48;;;;;;;26.57;16.53;;;;;;;;;;4991291;28;20191;-78
2023/12/07 05:39:14;;;;;;;23.47;15.47;;;;;;;;;;4974441;28;20314;-78
2023/12/07 05:41:40;;;;;;;24.50;16.37;;;;;;;;;;4992131;28;20230;-78
2023/12/07 05:44:07;;;;;;;22.97;15.27;;;;;;;;;;4990823;28;20188;-78
2023/12/07 05:46:36;;;;;;;23.33;15.30;;;;;;;;;;4990140;28;20248;-78
2023/12/07 05:49:02;;;;;;;20.77;14.80;;;;;;;;;;4998521;28;20265;-78
2023/12/07 05:51:28;;;;;;;22.27;15.67;;;;;;;;;;4991260;28;20187;-78
2023/12/07 05:53:54;;;;;;;28.47;17.73;;;;;;;;;;4960803;28;20183;-78
2023/12/07 05:56:20;;;;;;;28.73;17.20;;;;;;;;;;4988588;28;20176;-78
2023/12/07 05:58:47;;;;;;;23.47;16.53;;;;;;;;;;4990332;28;20695;-78
2023/12/07 06:01:17;;;;;;;20.93;14.90;;;;;;;;;;4986585;28;20278;-78
2023/12/07 06:03:44;;;;;;;22.70;16.30;;;;;;;;;;4981417;28;20617;-79
2023/12/07 06:06:11;;;;;;;20.43;15.60;;;;;;;;;;4989180;28;20491;-78
2023/12/07 06:08:37;;;;;;;20.57;14.93;;;;;;;;;;4982714;28;20218;-78
2023/12/07 06:11:04;;;;;;;21.47;14.70;;;;;;;;;;4953534;28;20668;-78
2023/12/07 06:13:31;;;;;;;23.53;15.70;;;;;;;;;;4987898;28;20244;-78
2023/12/07 06:15:57;;;;;;;23.70;16.43;;;;;;;;;;4969836;28;20188;-78
2023/12/07 06:18:23;;;;;;;21.33;15.37;;;;;;;;;;4979090;28;20214;-78
2023/12/07 06:20:49;;;;;;;23.23;15.13;;;;;;;;;;4988565;28;20200;-78
2023/12/07 06:23:16;;;;;;;19.90;14.23;;;;;;;;;;4990053;28;20191;-78
2023/12/07 06:25:42;;;;;;;19.13;14.00;;;;;;;;;;4985834;28;20238;-78
2023/12/07 06:28:08;;;;;;;21.33;14.70;;;;;;;;;;4981897;28;20239;-78
2023/12/07 06:30:34;;;;;;;19.50;14.10;;;;;;;;;;4984934;28;20176;-79
2023/12/07 06:33:01;;;;;;;21.87;15.10;;;;;;;;;;4984797;28;20184;-71
2023/12/07 06:35:27;;;;;;;19.90;14.47;;;;;;;;;;4991619;28;20695;-74
2023/12/07 06:37:53;;;;;;;23.27;15.60;;;;;;;;;;4985145;28;20506;-73
2023/12/07 06:40:20;;;;;;;19.93;14.40;;;;;;;;;;4988297;28;20330;-73
2023/12/07 06:42:46;;;;;;;19.13;13.43;;;;;;;;;;4991774;28;20180;-76
2023/12/07 06:45:14;;;;;;;23.37;16.10;;;;;;;;;;4989116;28;20226;-76
2023/12/07 06:47:43;;;;;;;22.07;15.90;;;;;;;;;;4991584;28;20259;-81
2023/12/07 06:50:09;;;;;;;26.25;19.85;;;;;;;;;;4991336;28;20511;-83
2023/12/07 06:52:36;;;;;;;26.77;17.00;;;;;;;;;;4978763;28;20215;-79
2023/12/07 06:55:02;;;;;;;22.77;15.97;;;;;;;;;;4987976;28;20180;-75
2023/12/07 06:57:28;;;;;;;30.47;18.90;;;;;;;;;;4989660;28;20263;-79
2023/12/07 06:59:55;;;;;;;23.83;16.77;;;;;;;;;;4975595;28;20250;-79
2023/12/07 07:02:21;;;;;;;25.00;16.60;;;;;;;;;;4992091;28;20583;-79
2023/12/07 07:04:48;;;;;;;27.23;17.87;;;;;;;;;;4996615;28;20168;-79
2023/12/07 07:07:15;;;;;;;33.20;21.17;;;;;;;;;;4974534;28;20191;-79
2023/12/07 07:09:41;;;;;;;26.83;17.17;;;;;;;;;;4990296;28;20207;-80
2023/12/07 07:12:08;;;;;;;23.70;16.10;;;;;;;;;;4974439;28;20208;-80
2023/12/07 07:14:34;;;;;;;23.87;16.10;;;;;;;;;;4970070;28;20551;-80
2023/12/07 07:17:00;;;;;;;21.97;15.43;;;;;;;;;;4992356;28;20502;-80
2023/12/07 07:19:26;;;;;;;21.40;15.53;;;;;;;;;;4990785;28;20706;-80
2023/12/07 07:21:53;;;;;;;20.67;14.33;;;;;;;;;;4993303;28;20202;-80
2023/12/07 07:24:19;;;;;;;22.27;15.47;;;;;;;;;;4993088;28;20191;-80
2023/12/07 07:26:45;;;;;;;19.60;14.40;;;;;;;;;;4993408;28;20639;-80
2023/12/07 07:29:11;;;;;;;24.97;16.23;;;;;;;;;;4996688;28;20211;-80
2023/12/07 07:31:37;;;;;;;24.87;16.90;;;;;;;;;;4978565;28;20195;-80
2023/12/07 07:34:04;;;;;;;27.17;17.03;;;;;;;;;;4978682;28;20594;-80
2023/12/07 07:36:32;;;;;;;24.60;16.03;;;;;;;;;;4979382;28;20197;-80
2023/12/07 07:38:58;;;;;;;25.27;16.17;;;;;;;;;;4968249;28;20212;-80
2023/12/07 07:41:24;;;;;;;21.33;14.90;;;;;;;;;;4996193;28;20179;-80
2023/12/07 07:43:50;;;;;;;22.80;15.70;;;;;;;;;;4996102;28;20699;-80
2023/12/07 07:46:17;;;;;;;21.37;15.13;;;;;;;;;;4965822;28;20250;-80
2023/12/07 07:48:43;;;;;;;19.57;14.43;;;;;;;;;;4977774;28;20662;-80
2023/12/07 07:51:09;;;;;;;20.53;14.80;;;;;;;;;;4992083;28;20271;-81
2023/12/07 07:53:35;;;;;;;21.43;15.37;;;;;;;;;;4972324;28;20195;-82
2023/12/07 07:56:01;;;;;;;24.37;15.93;;;;;;;;;;4964907;28;20192;-84
2023/12/07 07:58:27;;;;;;;22.37;15.27;;;;;;;;;;4998119;28;20219;-83
2023/12/07 08:00:53;;;;;;;21.23;15.70;;;;;;;;;;4960730;28;20207;-83
2023/12/07 08:03:19;;;;;;;23.10;15.30;;;;;;;;;;4996959;28;20192;-83
2023/12/07 08:05:46;;;;;;;24.33;16.90;;;;;;;;;;4971629;28;20191;-83
2023/12/07 08:08:12;;;;;;;26.83;15.40;;;;;;;;;;4981272;28;20224;-83
2023/12/07 08:10:39;;;;;;;24.53;16.10;;;;;;;;;;4969202;28;20196;-83
2023/12/07 08:13:07;;;;;;;24.87;16.90;;;;;;;;;;4996652;28;20618;-83
2023/12/07 08:15:33;;;;;;;23.93;16.43;;;;;;;;;;4965743;28;20219;-83
2023/12/07 08:17:59;;;;;;;24.63;16.57;;;;;;;;;;4989929;28;20232;-83
2023/12/07 08:20:26;;;;;;;25.83;17.37;;;;;;;;;;4961654;28;20203;-83
2023/12/07 08:22:52;;;;;;;24.63;16.80;;;;;;;;;;4995614;28;20188;-83
2023/12/07 08:25:18;;;;;;;29.87;17.40;;;;;;;;;;4971568;28;20674;-83
2023/12/07 08:27:45;;;;;;;25.97;17.93;;;;;;;;;;4996364;28;20218;-83
2023/12/07 08:30:12;;;;;;;26.37;17.63;;;;;;;;;;4979467;28;20194;-83
2023/12/07 08:32:39;;;;;;;26.40;17.50;;;;;;;;;;4996287;28;20184;-83
2023/12/07 08:35:05;;;;;;;30.90;20.67;;;;;;;;;;4968300;28;20188;-83
2023/12/07 08:37:32;;;;;;;27.60;19.40;;;;;;;;;;4980039;28;20195;-83
2023/12/07 08:39:58;;;;;;;30.57;20.00;;;;;;;;;;4995328;28;20184;-83
2023/12/07 08:42:26;;;;;;;29.20;20.13;;;;;;;;;;4980491;28;20187;-83
2023/12/07 08:44:52;;;;;;;26.63;18.37;;;;;;;;;;4980153;28;20195;-83
2023/12/07 08:47:19;;;;;;;27.63;18.20;;;;;;;;;;4980718;28;20479;-83
2023/12/07 08:49:45;;;;;;;25.17;17.70;;;;;;;;;;4996352;28;20641;-83
2023/12/07 08:52:11;;;;;;;22.23;16.13;;;;;;;;;;4979867;28;20195;-83
2023/12/07 08:54:37;;;;;;;22.50;16.30;;;;;;;;;;4981076;28;20534;-83
2023/12/07 08:57:04;;;;;;;25.63;17.40;;;;;;;;;;4971655;28;20564;-83
2023/12/07 08:59:30;;;;;;;28.13;18.77;;;;;;;;;;4981726;28;20703;-83
2023/12/07 09:01:57;;;;;;;27.50;18.57;;;;;;;;;;4971177;28;20542;-83
2023/12/07 09:04:23;;;;;;;23.70;16.57;;;;;;;;;;4981516;28;20206;-84
2023/12/07 09:06:49;;;;;;;25.73;17.43;;;;;;;;;;4984153;28;20259;-83
2023/12/07 09:09:15;;;;;;;27.03;17.97;;;;;;;;;;4998100;28;20263;-83
2023/12/07 09:11:41;;;;;;;26.23;16.67;;;;;;;;;;4984555;28;20206;-84
2023/12/07 09:14:08;;;;;;;24.87;17.53;;;;;;;;;;4999730;28;20199;-84
2023/12/07 09:16:34;;;;;;;25.43;17.83;;;;;;;;;;4983722;28;20192;-83
2023/12/07 09:19:01;;;;;;;24.00;16.83;;;;;;;;;;4982419;28;20278;-84
2023/12/07 09:21:27;;;;;;;23.73;16.23;;;;;;;;;;4981904;28;20609;-84
2023/12/07 09:23:54;;;;;;;26.77;18.20;;;;;;;;;;4996229;28;20192;-84
2023/12/07 09:26:20;;;;;;;30.77;19.17;;;;;;;;;;4986604;28;20199;-84
2023/12/07 09:28:47;;;;;;;34.03;20.23;;;;;;;;;;4982181;28;20215;-84
2023/12/07 09:31:13;;;;;;;37.77;21.20;;;;;;;;;;4983732;28;20188;-84
2023/12/07 09:33:39;;;;;;;33.67;21.53;;;;;;;;;;4976757;28;20276;-84
2023/12/07 09:36:08;;;;;;;36.03;21.03;;;;;;;;;;4998147;28;20183;-84
2023/12/07 09:38:36;;;;;;;41.60;21.93;;;;;;;;;;4983679;28;20589;-84
2023/12/07 09:41:03;;;;;;;36.90;21.87;;;;;;;;;;4982058;28;20199;-85
2023/12/07 09:43:29;;;;;;;39.90;22.23;;;;;;;;;;4980314;28;20656;-84
2023/12/07 09:45:55;;;;;;;35.33;21.10;;;;;;;;;;4983206;28;20251;-84
2023/12/07 09:48:22;;;;;;;38.33;21.77;;;;;;;;;;4994434;28;20219;-84
2023/12/07 09:50:48;;;;;;;35.43;21.10;;;;;;;;;;4981154;28;20196;-84
2023/12/07 09:53:14;;;;;;;35.63;21.67;;;;;;;;;;4977717;28;20565;-83
2023/12/07 09:55:41;;;;;;;37.60;22.03;;;;;;;;;;4987613;28;20188;-84
2023/12/07 09:58:07;;;;;;;36.20;20.27;;;;;;;;;;4996765;28;20223;-84
2023/12/07 10:00:33;;;;;;;38.97;22.27;;;;;;;;;;4983665;28;20339;-84
2023/12/07 10:02:59;;;;;;;32.27;20.37;;;;;;;;;;4986574;28;20301;-84
2023/12/07 10:05:26;;;;;;;34.43;21.37;;;;;;;;;;4981730;28;20683;-84
2023/12/07 10:07:52;;;;;;;35.83;21.27;;;;;;;;;;4980468;28;20219;-84
2023/12/07 10:10:19;;;;;;;33.20;20.87;;;;;;;;;;4986600;28;20199;-84
2023/12/07 10:12:51;;;;;;;32.47;19.47;;;;;;;;;;4986042;28;20219;-84
2023/12/07 10:15:19;;;;;;;33.60;19.53;;;;;;;;;;4985534;28;20910;-83
2023/12/07 10:17:49;;;;;;;33.40;20.27;;;;;;;;;;4996705;28;20184;-84
2023/12/07 10:20:16;;;;;;;34.40;20.80;;;;;;;;;;4983183;28;20266;-84
2023/12/07 10:22:42;;;;;;;42.43;24.83;;;;;;;;;;4990000;28;20191;-84
2023/12/07 10:25:10;;;;;;;35.90;20.30;;;;;;;;;;4970920;28;20682;-84
2023/12/07 10:27:38;;;;;;;36.00;22.07;;;;;;;;;;4968095;28;20294;-84
2023/12/07 10:30:06;;;;;;;35.23;21.00;;;;;;;;;;4998831;28;20190;-83
2023/12/07 10:32:32;;;;;;;39.60;22.60;;;;;;;;;;4982885;28;20218;-82
2023/12/07 10:35:01;;;;;;;35.70;21.20;;;;;;;;;;4981957;28;20263;-83
2023/12/07 10:37:27;;;;;;;35.60;21.37;;;;;;;;;;4984681;28;20218;-84
2023/12/07 10:39:53;;;;;;;35.60;21.23;;;;;;;;;;4974924;28;20184;-83
2023/12/07 10:42:23;;;;;;;35.37;20.57;;;;;;;;;;5001148;28;20646;-83
2023/12/07 10:44:50;;;;;;;38.00;21.53;;;;;;;;;;4984974;28;20191;-84
2023/12/07 10:47:17;;;;;;;34.77;19.67;;;;;;;;;;4968476;28;20192;-83
2023/12/07 10:49:45;;;;;;;34.40;20.73;;;;;;;;;;4983666;28;20207;-83
2023/12/07 10:52:15;;;;;;;27.73;17.57;;;;;;;;;;4968608;28;20283;-83
2023/12/07 10:54:51;;;;;;;30.37;18.47;;;;;;;;;;4969267;28;20980;-84
2023/12/07 10:57:17;;;;;;;29.47;17.97;;;;;;;;;;5001659;28;20409;-83
2023/12/07 10:59:44;;;;;;;30.33;17.20;;;;;;;;;;4997121;28;20202;-83
2023/12/07 11:02:13;;;;;;;28.23;17.90;;;;;;;;;;4981884;28;20227;-83
2023/12/07 11:04:41;;;;;;;25.77;17.20;;;;;;;;;;4976063;28;20191;-83
2023/12/07 11:07:09;;;;;;;23.70;15.67;;;;;;;;;;4981332;28;20601;-83
2023/12/07 11:09:39;;;;;;;26.07;16.30;;;;;;;;;;4967187;28;20223;-83
2023/12/07 11:12:10;;;;;;;34.27;20.23;;;;;;;;;;5000613;28;20565;-84
2023/12/07 11:14:38;;;;;;;34.00;20.93;;;;;;;;;;4983548;28;20277;-84
2023/12/07 11:17:04;;;;;;;31.33;19.70;;;;;;;;;;4983953;28;20596;-83
2023/12/07 11:19:32;;;;;;;38.63;24.40;;;;;;;;;;4983558;28;20207;-83
2023/12/07 11:22:01;;;;;;;40.77;23.73;;;;;;;;;;4973939;28;20211;-83
2023/12/07 11:24:27;;;;;;;40.70;23.83;;;;;;;;;;4996082;28;20259;-83
2023/12/07 11:26:54;;;;;;;37.40;23.43;;;;;;;;;;4983188;28;20183;-83
2023/12/07 11:29:21;;;;;;;38.00;24.00;;;;;;;;;;4983387;28;20248;-84
2023/12/07 11:31:47;;;;;;;36.43;22.67;;;;;;;;;;4996854;28;20191;-83
2023/12/07 11:34:14;;;;;;;36.30;23.63;;;;;;;;;;4997433;28;20590;-83
2023/12/07 11:36:41;;;;;;;36.30;21.70;;;;;;;;;;4998106;28;20184;-83
2023/12/07 11:39:11;;;;;;;38.60;23.77;;;;;;;;;;4983817;28;20645;-83
2023/12/07 11:41:44;;;;;;;35.40;22.60;;;;;;;;;;4974392;28;20195;-83
2023/12/07 11:44:10;;;;;;;39.63;24.50;;;;;;;;;;4991278;28;20191;-83
2023/12/07 11:46:38;;;;;;;37.87;23.23;;;;;;;;;;4993816;28;20255;-83
2023/12/07 11:49:08;;;;;;;40.47;24.30;;;;;;;;;;4987704;28;20230;-83
2023/12/07 11:51:34;;;;;;;38.47;24.00;;;;;;;;;;4983936;28;20679;-83
2023/12/07 11:54:00;;;;;;;39.87;23.10;;;;;;;;;;4985862;28;20187;-83
2023/12/07 11:56:26;;;;;;;34.20;21.47;;;;;;;;;;4987999;28;20193;-83
2023/12/07 11:58:52;;;;;;;36.07;22.37;;;;;;;;;;4987926;28;20239;-83
2023/12/07 12:01:18;;;;;;;36.73;22.90;;;;;;;;;;4984373;28;20254;-84
2023/12/07 12:03:45;;;;;;;36.10;22.07;;;;;;;;;;5002741;28;20183;-84
2023/12/07 12:06:11;;;;;;;35.77;22.37;;;;;;;;;;4991232;28;20267;-83
2023/12/07 12:08:37;;;;;;;34.73;21.53;;;;;;;;;;5000537;28;20211;-83
2023/12/07 12:11:04;;;;;;;32.53;21.57;;;;;;;;;;4996500;28;20176;-83
2023/12/07 12:13:34;;;;;;;31.33;20.67;;;;;;;;;;4966223;28;20196;-84
2023/12/07 12:16:00;;;;;;;31.60;20.37;;;;;;;;;;4997790;28;20267;-84
2023/12/07 12:18:27;;;;;;;30.27;19.87;;;;;;;;;;4996691;28;20215;-84
2023/12/07 12:20:54;;;;;;;32.40;21.27;;;;;;;;;;4970291;28;20199;-83
2023/12/07 12:23:20;;;;;;;29.00;20.07;;;;;;;;;;4985825;28;20191;-83
2023/12/07 12:25:46;;;;;;;25.87;17.90;;;;;;;;;;4996686;28;20192;-83
2023/12/07 12:28:15;;;;;;;28.37;19.63;;;;;;;;;;4997844;28;20616;-83
2023/12/07 12:30:42;;;;;;;32.13;21.43;;;;;;;;;;4994459;28;20184;-84
2023/12/07 12:33:08;;;;;;;29.90;20.37;;;;;;;;;;4977532;28;20196;-83
2023/12/07 12:35:34;;;;;;;31.40;20.07;;;;;;;;;;4980233;28;20208;-83
2023/12/07 12:38:00;;;;;;;33.83;20.00;;;;;;;;;;4994258;28;20227;-83
2023/12/07 12:40:31;;;;;;;32.03;20.17;;;;;;;;;;4994039;28;20275;-84
2023/12/07 12:42:58;;;;;;;35.60;21.20;;;;;;;;;;4977132;28;20191;-85
2023/12/07 12:45:24;;;;;;;29.77;19.37;;;;;;;;;;4994573;28;20597;-83
2023/12/07 12:47:50;;;;;;;28.83;18.33;;;;;;;;;;4993378;28;20321;-83
2023/12/07 12:50:35;;;;;;;27.60;19.37;;;;;;;;;;4994663;28;20188;-84
2023/12/07 12:53:05;;;;;;;30.73;19.83;;;;;;;;;;4998086;28;20330;-84
2023/12/07 12:55:33;;;;;;;32.43;20.27;;;;;;;;;;5002405;28;20242;-84
2023/12/07 12:58:00;;;;;;;30.17;19.50;;;;;;;;;;4999659;28;20215;-83
2023/12/07 13:00:26;;;;;;;35.30;21.90;;;;;;;;;;4984112;28;20203;-84
2023/12/07 13:02:52;;;;;;;31.97;19.93;;;;;;;;;;4997334;28;20279;-84
2023/12/07 13:05:19;;;;;;;31.50;19.63;;;;;;;;;;4975999;28;20227;-84
2023/12/07 13:07:48;;;;;;;32.60;20.00;;;;;;;;;;4992797;28;20695;-84
2023/12/07 13:10:15;;;;;;;33.27;20.50;;;;;;;;;;4973497;28;20184;-83
2023/12/07 13:12:41;;;;;;;32.47;19.80;;;;;;;;;;4976354;28;20191;-84
2023/12/07 13:15:07;;;;;;;41.27;22.00;;;;;;;;;;4961708;28;20195;-84
2023/12/07 13:17:33;;;;;;;36.13;22.63;;;;;;;;;;4995288;28;20202;-83
2023/12/07 13:19:59;;;;;;;36.77;22.13;;;;;;;;;;4996023;28;20214;-83
2023/12/07 13:22:26;;;;;;;39.80;23.67;;;;;;;;;;4978654;28;20195;-83
2023/12/07 13:24:52;;;;;;;39.27;22.10;;;;;;;;;;4967987;28;20227;-84
2023/12/07 13:27:18;;;;;;;39.47;22.67;;;;;;;;;;4977647;28;20195;-83
2023/12/07 13:29:44;;;;;;;35.73;20.97;;;;;;;;;;4994381;28;20215;-83
2023/12/07 13:32:11;;;;;;;42.73;23.90;;;;;;;;;;4967691;28;20271;-83
2023/12/07 13:34:37;;;;;;;36.20;22.63;;;;;;;;;;4995036;28;20192;-83
2023/12/07 13:37:04;;;;;;;34.43;21.80;;;;;;;;;;4993350;28;20187;-83
2023/12/07 13:39:31;;;;;;;33.47;20.90;;;;;;;;;;4978004;28;20655;-84
2023/12/07 13:41:57;;;;;;;38.87;22.37;;;;;;;;;;4994248;28;20176;-83
2023/12/07 13:44:24;;;;;;;39.73;23.27;;;;;;;;;;4962721;28;20290;-84
2023/12/07 13:46:50;;;;;;;40.07;23.97;;;;;;;;;;4970363;28;20193;-83
2023/12/07 13:49:16;;;;;;;38.30;23.30;;;;;;;;;;4978792;28;20306;-83
2023/12/07 13:51:42;;;;;;;38.33;22.40;;;;;;;;;;4994296;28;20525;-83
2023/12/07 13:54:08;;;;;;;38.90;22.83;;;;;;;;;;4983376;28;20267;-83
2023/12/07 13:56:35;;;;;;;36.47;21.77;;;;;;;;;;4995843;28;20191;-83
2023/12/07 13:59:02;;;;;;;36.80;21.40;;;;;;;;;;4997433;28;20207;-83
2023/12/07 14:01:28;;;;;;;39.63;22.40;;;;;;;;;;4993611;28;20279;-83
2023/12/07 14:03:55;;;;;;;32.53;20.13;;;;;;;;;;4976725;28;20278;-83
2023/12/07 14:06:23;;;;;;;37.47;21.97;;;;;;;;;;4993761;28;20195;-83
2023/12/07 14:08:49;;;;;;;35.10;21.50;;;;;;;;;;4993911;28;20207;-83
2023/12/07 14:11:16;;;;;;;38.67;23.20;;;;;;;;;;4968998;28;20188;-83
2023/12/07 14:13:42;;;;;;;38.17;21.20;;;;;;;;;;4996340;28;20180;-83